Terminal Aerodrome Forecast
Issued by NWS

Home | Current Version | Previous Version | Text Only | Print | Product List | Glossary On
Versions: 1 2 3 4 5 6 7 8 9 10 11 12 13 14 15 16
000
FTUS41 KPBZ 302346
TAFHLG
TAF
KHLG 302346Z 3100/3124 16004KT P6SM SCT050 BKN100
     FM311700 22008KT P6SM SCT035 BKN060 PROB30 3118/3122 -TSRA
      BKN035CB=

USA.gov is the U.S. government's official web portal to all federal, state and local government web resources and services.